Time;durP1;ratioP1;P1;durP2;ratioP2;P2;SDS_P1;SDS_P2;PMS_P1;PMS_P2;Temp;Humidity;BMP_temperature;BMP_pressure;BME280_temperature;BME280_humidity;BME280_pressure;Samples;Min_cycle;Max_cycle;Signal;HPM_P1;HPM_P2
2023/03/28 00:01:19;;;;;;;13.67;6.07;;;4.40;99.90;;;;;;5050493;28;20195;-93
2023/03/28 00:05:14;;;;;;;;;;;;;;;;;;;;;
2023/03/28 06:09:53;;;;;;;15.37;5.27;;;4.30;99.90;;;;;;5356841;22;20239;-93
2023/03/28 06:13:05;;;;;;;11.17;5.03;;;4.40;99.90;;;;;;5020869;28;20233;-94
2023/03/28 06:19:41;;;;;;;12.37;4.67;;;4.50;99.90;;;;;;5054384;28;20232;-93
2023/03/28 06:23:16;;;;;;;10.93;4.73;;;4.30;99.90;;;;;;5045234;28;20169;-93
2023/03/28 08:23:09;;;;;;;;;;;;;;;;;;;;;
2023/03/28 08:29:47;;;;;;;;;;;;;;;;;;;;;
2023/03/28 08:41:08;;;;;;;;;;;;;;;;;;;;;
2023/03/28 09:03:25;;;;;;;10.20;3.47;;;7.00;99.90;;;;;;5016971;28;20166;-95
2023/03/28 09:37:06;;;;;;;7.87;2.93;;;8.00;99.90;;;;;;5011823;28;20211;-93
2023/03/28 09:40:22;;;;;;;7.47;3.60;;;8.00;99.90;;;;;;5018832;28;20167;-93
2023/03/28 09:43:45;;;;;;;9.30;2.50;;;8.30;99.90;;;;;;5011391;28;20198;-93
2023/03/28 09:47:29;;;;;;;9.43;2.80;;;8.40;99.90;;;;;;5018765;28;20183;-93
2023/03/28 09:50:57;;;;;;;;;;;;;;;;;;;;;
2023/03/28 09:54:14;;;;;;;11.07;3.60;;;8.60;99.90;;;;;;5009154;28;20198;-94
2023/03/28 09:57:26;;;;;;;6.60;3.10;;;8.90;99.90;;;;;;5001921;28;20245;-94
2023/03/28 10:07:41;;;;;;;9.13;3.53;;;9.00;99.90;;;;;;4945564;29;20247;-94
2023/03/28 10:11:23;;;;;;;6.87;2.50;;;9.20;99.90;;;;;;4999907;28;20229;-93
2023/03/28 10:16:59;;;;;;;5.80;2.33;;;9.40;99.90;;;;;;5015491;28;20198;-93
2023/03/28 10:20:07;;;;;;;;;;;;;;;;;;;;;
2023/03/28 10:31:16;;;;;;;;;;;;;;;;;;;;;
2023/03/28 10:33:57;;;;;;;6.20;2.70;;;9.30;99.90;;;;;;5002897;28;20293;-94
2023/03/28 10:41:36;;;;;;;;;;;;;;;;;;;;;
2023/03/28 10:44:29;;;;;;;5.73;2.67;;;9.10;99.90;;;;;;4825815;29;20174;-93
2023/03/28 10:48:11;;;;;;;4.77;2.33;;;9.20;99.90;;;;;;4828557;29;20186;-95
2023/03/28 11:08:52;;;;;;;4.70;2.83;;;9.80;99.90;;;;;;4972431;28;20243;-95
2023/03/28 11:12:03;;;;;;;6.73;2.30;;;9.80;99.90;;;;;;4983792;28;20209;-94
2023/03/28 11:15:16;;;;;;;4.67;2.20;;;9.90;99.90;;;;;;4983859;28;20193;-94
2023/03/28 11:18:31;;;;;;;4.27;2.60;;;10.00;99.90;;;;;;4998744;28;20179;-95
2023/03/28 11:21:33;;;;;;;5.27;3.33;;;10.20;99.90;;;;;;4993521;28;20179;-94
2023/03/28 11:25:00;;;;;;;6.07;2.60;;;10.40;99.90;;;;;;4989560;28;20183;-96
2023/03/28 11:27:50;;;;;;;7.60;3.13;;;10.60;99.90;;;;;;4999793;28;20187;-93
2023/03/28 11:37:46;;;;;;;8.37;3.27;;;11.00;99.90;;;;;;5002259;28;20577;-93
2023/03/28 11:40:35;;;;;;;5.23;2.30;;;11.10;99.90;;;;;;5006897;28;20174;-93
2023/03/28 11:43:44;;;;;;;6.60;2.37;;;11.30;99.90;;;;;;4997193;28;20186;-94
2023/03/28 11:46:23;;;;;;;7.30;2.90;;;11.50;99.90;;;;;;4979580;28;20245;-94
2023/03/28 11:49:06;;;;;;;9.73;2.47;;;11.50;99.90;;;;;;4997702;28;20183;-94
2023/03/28 11:51:40;;;;;;;8.47;3.10;;;11.50;99.90;;;;;;5015509;28;20214;-92
2023/03/28 11:54:27;;;;;;;8.93;2.90;;;11.40;99.90;;;;;;5015754;28;20275;-94
2023/03/28 11:57:02;;;;;;;7.50;2.57;;;11.30;99.90;;;;;;5017341;28;20178;-91
2023/03/28 11:59:53;;;;;;;5.90;2.57;;;11.20;99.90;;;;;;5017896;28;20297;-93
2023/03/28 12:02:37;;;;;;;8.40;2.80;;;11.40;99.90;;;;;;5009365;28;20179;-94
2023/03/28 12:05:58;;;;;;;4.27;2.27;;;11.50;99.90;;;;;;5013148;28;20187;-93
2023/03/28 12:08:52;;;;;;;8.03;2.40;;;11.50;99.90;;;;;;4977841;28;20199;-94
2023/03/28 12:11:28;;;;;;;8.27;3.07;;;11.30;99.90;;;;;;4962239;28;20176;-95
2023/03/28 12:14:04;;;;;;;6.87;2.97;;;11.50;99.90;;;;;;4961233;28;20202;-93
2023/03/28 12:17:02;;;;;;;;;;;;;;;;;;;;;
2023/03/28 12:19:40;;;;;;;6.43;2.83;;;11.60;99.90;;;;;;4987222;28;20270;-94
2023/03/28 12:22:51;;;;;;;5.63;2.70;;;11.80;99.90;;;;;;4996885;28;20175;-93
2023/03/28 12:25:40;;;;;;;9.17;2.80;;;11.90;99.90;;;;;;4995537;28;20572;-93
2023/03/28 12:28:26;;;;;;;5.23;2.80;;;12.10;99.90;;;;;;4997665;28;20183;-94
2023/03/28 12:31:07;;;;;;;6.90;2.83;;;12.00;99.90;;;;;;5000399;28;20198;-93
2023/03/28 12:33:44;;;;;;;6.90;2.70;;;11.80;99.90;;;;;;5015543;28;20210;-94
2023/03/28 12:36:32;;;;;;;7.13;2.80;;;11.70;99.90;;;;;;4998284;28;20186;-93
2023/03/28 12:39:11;;;;;;;5.00;2.47;;;11.50;99.90;;;;;;4996044;28;20265;-93
2023/03/28 12:41:39;;;;;;;5.97;2.70;;;11.60;99.90;;;;;;4996830;28;20277;-93
2023/03/28 12:44:15;;;;;;;6.20;2.97;;;11.80;99.90;;;;;;4997790;28;20185;-94
2023/03/28 12:46:48;;;;;;;5.53;2.43;;;11.70;99.90;;;;;;4997491;28;20540;-94
2023/03/28 12:49:28;;;;;;;5.37;2.50;;;11.80;99.90;;;;;;4996980;28;20174;-94
2023/03/28 12:51:58;;;;;;;6.43;2.60;;;11.80;99.90;;;;;;4998831;28;20253;-93
2023/03/28 12:54:51;;;;;;;6.73;2.87;;;12.00;99.90;;;;;;5004001;28;20178;-93
2023/03/28 12:57:47;;;;;;;5.90;2.37;;;11.90;99.90;;;;;;5008262;28;20175;-92
2023/03/28 13:00:32;;;;;;;5.90;2.70;;;11.90;99.90;;;;;;5000111;28;20167;-93
2023/03/28 13:03:04;;;;;;;8.47;3.03;;;11.90;99.90;;;;;;4999781;28;20233;-93
2023/03/28 13:06:23;;;;;;;6.37;2.80;;;12.10;99.90;;;;;;5059737;23;20222;-95
2023/03/28 13:09:11;;;;;;;5.47;2.60;;;11.90;99.90;;;;;;4979875;28;20648;-96
2023/03/28 13:12:17;;;;;;;5.37;2.80;;;11.80;99.90;;;;;;4998025;28;20231;-95
2023/03/28 13:15:00;;;;;;;7.73;2.80;;;11.70;99.90;;;;;;4997030;28;20219;-94
2023/03/28 13:17:31;;;;;;;5.13;2.47;;;11.60;99.90;;;;;;5003625;28;20168;-95
2023/03/28 13:20:13;;;;;;;8.43;2.60;;;11.70;99.90;;;;;;5016100;28;20183;-94
2023/03/28 13:22:56;;;;;;;7.57;2.83;;;11.70;99.90;;;;;;4999012;28;20183;-94
2023/03/28 13:25:31;;;;;;;5.57;2.53;;;11.60;99.90;;;;;;5001368;28;20208;-94
2023/03/28 13:28:50;;;;;;;5.67;2.67;;;11.50;99.90;;;;;;4997785;28;20177;-94
2023/03/28 13:31:24;;;;;;;8.37;2.60;;;11.30;99.90;;;;;;4999043;28;20183;-94
2023/03/28 13:34:01;;;;;;;6.03;2.50;;;11.70;99.90;;;;;;4999084;28;20186;-95
2023/03/28 13:36:48;;;;;;;6.77;2.73;;;11.70;99.90;;;;;;4987199;28;20191;-94
2023/03/28 13:39:23;;;;;;;6.53;2.80;;;11.80;99.90;;;;;;5015230;28;20158;-95
2023/03/28 13:41:52;;;;;;;7.67;3.13;;;11.80;99.90;;;;;;5016970;28;20222;-94
2023/03/28 13:44:28;;;;;;;6.57;3.13;;;11.80;99.90;;;;;;5016959;28;20190;-94
2023/03/28 13:47:25;;;;;;;6.93;2.57;;;11.80;99.90;;;;;;5018143;28;20167;-94
2023/03/28 13:53:17;;;;;;;6.33;2.57;;;11.60;99.90;;;;;;5014212;28;20202;-96
2023/03/28 13:56:05;;;;;;;7.60;2.60;;;11.50;99.90;;;;;;5016193;28;20204;-96
2023/03/28 13:58:38;;;;;;;7.20;3.13;;;11.30;99.90;;;;;;5014198;28;20179;-94
2023/03/28 14:01:19;;;;;;;6.00;2.53;;;11.30;99.90;;;;;;5016362;28;20182;-96
2023/03/28 14:04:01;;;;;;;6.83;2.70;;;11.20;99.90;;;;;;5016142;28;20198;-95
2023/03/28 14:06:29;;;;;;;8.40;3.03;;;11.20;99.90;;;;;;5018741;28;20207;-94
2023/03/28 14:08:59;;;;;;;4.23;2.90;;;11.30;99.90;;;;;;5043805;23;20271;-93
2023/03/28 14:11:49;;;;;;;6.77;2.80;;;11.30;99.90;;;;;;5036465;23;20301;-96
2023/03/28 14:14:47;;;;;;;6.90;2.77;;;11.40;99.90;;;;;;5014488;28;20254;-96
2023/03/28 14:17:35;;;;;;;9.53;3.53;;;11.50;99.90;;;;;;4996114;28;20203;-96
2023/03/28 14:20:26;;;;;;;7.00;2.90;;;11.60;99.90;;;;;;5011975;28;20182;-96
2023/03/28 14:22:56;;;;;;;7.03;2.93;;;11.50;99.90;;;;;;4998987;28;20175;-95
2023/03/28 14:25:26;;;;;;;8.60;3.07;;;11.30;99.90;;;;;;5094101;23;20219;-96
2023/03/28 14:27:55;;;;;;;5.70;2.33;;;11.20;99.90;;;;;;4977856;28;20199;-94
2023/03/28 14:30:38;;;;;;;5.40;2.50;;;11.20;99.90;;;;;;4995656;28;20235;-95
2023/03/28 14:37:00;;;;;;;5.70;2.80;;;10.90;99.90;;;;;;4989364;28;20183;-95
2023/03/28 14:39:33;;;;;;;5.30;2.50;;;11.20;99.90;;;;;;5017121;28;20166;-95
2023/03/28 14:42:44;;;;;;;7.13;2.70;;;11.00;99.90;;;;;;5019292;28;20183;-96
2023/03/28 14:45:23;;;;;;;4.20;2.00;;;10.90;99.90;;;;;;5007583;28;20221;-95
2023/03/28 14:47:58;;;;;;;9.30;2.53;;;10.70;99.90;;;;;;5008306;28;20265;-94
2023/03/28 14:50:31;;;;;;;6.57;2.73;;;10.70;99.90;;;;;;4991676;28;20185;-96
2023/03/28 14:53:26;;;;;;;5.47;2.50;;;10.70;99.90;;;;;;4991475;28;20207;-94
2023/03/28 14:55:57;;;;;;;5.10;2.60;;;10.70;99.90;;;;;;4974012;28;20176;-95
2023/03/28 14:58:24;;;;;;;6.53;2.23;;;10.70;99.90;;;;;;4999814;28;20164;-95
2023/03/28 15:00:57;;;;;;;5.33;2.23;;;10.90;99.90;;;;;;4997753;28;20187;-92
2023/03/28 15:03:39;;;;;;;7.93;2.90;;;10.70;99.90;;;;;;5009059;28;20222;-92
2023/03/28 15:06:07;;;;;;;5.80;2.90;;;10.50;99.90;;;;;;4996669;28;20243;-95
2023/03/28 15:08:46;;;;;;;8.60;3.60;;;10.60;99.90;;;;;;4993661;28;20199;-94
2023/03/28 15:11:33;;;;;;;5.33;2.60;;;10.60;99.90;;;;;;4996356;28;20171;-94
2023/03/28 15:14:41;;;;;;;8.37;2.70;;;10.70;99.90;;;;;;4996865;28;20179;-93
2023/03/28 15:17:19;;;;;;;6.60;2.80;;;10.70;99.90;;;;;;4991638;28;20246;-95
2023/03/28 15:19:54;;;;;;;9.17;3.00;;;10.60;99.90;;;;;;4991366;28;20275;-96
2023/03/28 15:22:44;;;;;;;5.83;2.87;;;10.50;99.90;;;;;;4976080;28;20166;-92
2023/03/28 15:30:50;;;;;;;7.13;2.63;;;10.40;99.90;;;;;;5029404;23;20207;-94
2023/03/28 15:33:45;;;;;;;6.07;2.77;;;10.50;99.90;;;;;;5019260;28;20210;-92
2023/03/28 15:37:09;;;;;;;5.37;3.00;;;10.60;99.90;;;;;;5015986;28;20201;-94
2023/03/28 15:40:07;;;;;;;4.50;2.67;;;10.40;99.90;;;;;;5012625;28;20213;-93
2023/03/28 15:43:30;;;;;;;5.87;2.50;;;10.40;99.90;;;;;;5014786;28;20167;-93
2023/03/28 15:46:02;;;;;;;6.33;2.63;;;10.50;99.90;;;;;;5011219;28;20217;-93
2023/03/28 15:48:34;;;;;;;9.77;2.73;;;10.50;99.90;;;;;;5006455;28;20262;-95
2023/03/28 15:51:23;;;;;;;7.03;2.63;;;10.30;99.90;;;;;;5012141;28;20183;-93
2023/03/28 15:53:57;;;;;;;8.27;2.50;;;10.50;99.90;;;;;;5013111;28;20210;-96
2023/03/28 15:56:30;;;;;;;5.43;2.80;;;10.40;99.90;;;;;;5010462;28;20198;-92
2023/03/28 15:59:09;;;;;;;7.07;2.77;;;10.40;99.90;;;;;;5011155;28;20179;-94
2023/03/28 16:01:48;;;;;;;5.83;2.70;;;10.30;99.90;;;;;;5017036;28;20189;-94
2023/03/28 16:04:28;;;;;;;7.17;2.77;;;10.30;99.90;;;;;;5027946;28;20195;-95
2023/03/28 16:07:40;;;;;;;5.90;2.67;;;10.20;99.90;;;;;;5012113;28;20175;-95
2023/03/28 16:10:08;;;;;;;5.87;2.60;;;10.10;99.90;;;;;;4994055;28;20266;-95
2023/03/28 16:12:42;;;;;;;4.00;2.10;;;10.20;99.90;;;;;;4991521;28;20625;-96
2023/03/28 16:15:20;;;;;;;4.20;2.67;;;10.10;99.90;;;;;;4995046;28;20184;-93
2023/03/28 16:17:47;;;;;;;5.73;2.37;;;10.10;99.90;;;;;;4988700;28;20226;-94
2023/03/28 16:20:24;;;;;;;5.47;2.07;;;9.90;99.90;;;;;;4991131;28;20172;-94
2023/03/28 16:22:50;;;;;;;7.13;2.80;;;10.00;99.90;;;;;;4996136;28;20163;-93
2023/03/28 16:25:26;;;;;;;5.30;2.80;;;9.70;99.90;;;;;;5071499;23;20227;-95
2023/03/28 16:27:54;;;;;;;3.43;1.50;;;9.60;99.90;;;;;;5004756;28;20681;-94
2023/03/28 16:30:54;;;;;;;4.67;1.70;;;9.60;99.90;;;;;;5008998;28;20195;-93
2023/03/28 16:36:30;;;;;;;4.50;1.70;;;9.10;99.90;;;;;;5022023;23;20669;-91
2023/03/28 16:39:00;;;;;;;3.63;2.03;;;9.10;99.90;;;;;;5017293;28;20187;-91
2023/03/28 16:41:30;;;;;;;5.43;2.10;;;9.10;99.90;;;;;;5017533;28;20166;-92
2023/03/28 16:44:02;;;;;;;5.47;2.40;;;9.00;99.90;;;;;;5013853;28;20202;-96
2023/03/28 16:46:34;;;;;;;5.73;2.70;;;8.90;99.90;;;;;;5017817;28;20191;-92
2023/03/28 16:49:25;;;;;;;4.70;2.70;;;8.90;99.90;;;;;;5027557;28;20221;-92
2023/03/28 16:51:53;;;;;;;6.60;3.20;;;8.90;99.90;;;;;;5017203;28;20210;-93
2023/03/28 16:54:27;;;;;;;5.17;2.83;;;8.90;99.90;;;;;;5016435;28;20604;-91
2023/03/28 16:57:18;;;;;;;7.27;3.17;;;8.70;99.90;;;;;;5015966;28;20246;-95
2023/03/28 17:00:19;;;;;;;5.80;2.87;;;8.50;99.90;;;;;;5015464;28;20187;-96
2023/03/28 17:03:21;;;;;;;5.20;2.80;;;8.60;99.90;;;;;;5000309;28;20206;-95
2023/03/28 17:06:24;;;;;;;5.73;3.10;;;8.50;99.90;;;;;;4990908;28;20182;-96
2023/03/28 17:09:21;;;;;;;8.47;3.40;;;8.60;99.90;;;;;;4987653;28;20180;-93
2023/03/28 17:12:04;;;;;;;;;;;;;;;;;;;;;
2023/03/28 17:14:46;;;;;;;5.13;3.10;;;8.70;99.90;;;;;;4995811;28;20186;-93
2023/03/28 17:17:14;;;;;;;8.47;3.60;;;8.70;99.90;;;;;;4987396;28;20175;-96
2023/03/28 17:19:44;;;;;;;6.40;2.97;;;8.70;99.90;;;;;;4999326;28;20182;-94
2023/03/28 17:22:21;;;;;;;7.30;2.87;;;8.50;99.90;;;;;;5026103;23;20211;-93
2023/03/28 17:28:45;;;;;;;;;;;;;;;;;;;;;
2023/03/28 17:38:22;;;;;;;7.17;3.27;;;8.20;99.90;;;;;;5023249;23;20233;-92
2023/03/28 17:41:33;;;;;;;3.83;2.30;;;8.10;99.90;;;;;;4980476;28;20175;-92
2023/03/28 18:24:33;;;;;;;3.07;1.90;;;8.70;99.90;;;;;;4969114;29;20189;-91
2023/03/28 18:28:35;;;;;;;3.40;2.30;;;8.60;99.90;;;;;;4941115;29;20197;-92
2023/03/28 19:14:12;;;;;;;;;;;;;;;;;;;;;
2023/03/28 19:18:24;;;;;;;;;;;;;;;;;;;;;
2023/03/28 20:39:18;;;;;;;3.10;2.30;;;8.40;99.90;;;;;;1295441;23;21789;-88
2023/03/28 20:42:33;;;;;;;6.70;2.70;;;8.30;99.90;;;;;;4993707;28;20262;-92
2023/03/28 20:50:04;;;;;;;4.23;2.07;;;8.30;99.90;;;;;;4993507;28;20223;-90
2023/03/28 20:53:01;;;;;;;;;;;;;;;;;;;;;
2023/03/28 20:56:29;;;;;;;5.37;2.50;;;8.30;99.90;;;;;;4972806;28;20196;-90
2023/03/28 20:59:28;;;;;;;4.43;2.10;;;8.30;99.90;;;;;;5000169;23;20227;-89
2023/03/28 21:02:25;;;;;;;5.73;2.50;;;8.30;99.90;;;;;;5014546;28;20203;-89
2023/03/28 21:05:11;;;;;;;4.83;2.30;;;8.40;99.90;;;;;;5008414;28;20210;-91
2023/03/28 21:08:26;;;;;;;3.73;2.00;;;8.40;99.90;;;;;;5000535;28;20178;-90
2023/03/28 21:15:00;;;;;;;5.73;2.47;;;8.40;99.90;;;;;;4967702;28;20199;-89
2023/03/28 21:17:58;;;;;;;3.27;2.13;;;8.60;99.90;;;;;;4948192;29;20173;-89
2023/03/28 21:21:28;;;;;;;4.97;2.47;;;8.50;99.90;;;;;;4995444;28;20193;-91
2023/03/28 21:24:47;;;;;;;5.53;2.53;;;8.50;99.90;;;;;;4998385;28;20178;-92
2023/03/28 21:27:40;;;;;;;6.17;2.30;;;8.50;99.90;;;;;;5014273;28;20181;-90
2023/03/28 21:30:53;;;;;;;4.63;2.73;;;8.50;99.90;;;;;;5015365;28;20175;-91
2023/03/28 21:34:02;;;;;;;5.67;2.60;;;8.40;99.90;;;;;;5003315;28;20217;-88
2023/03/28 21:37:00;;;;;;;6.80;2.83;;;8.40;99.90;;;;;;5016961;28;20159;-89
2023/03/28 21:39:44;;;;;;;4.00;2.10;;;8.40;99.90;;;;;;5015299;28;20242;-92
2023/03/28 21:43:06;;;;;;;5.93;2.90;;;8.50;99.90;;;;;;5014510;28;20193;-88
2023/03/28 21:56:37;;;;;;;5.97;2.40;;;8.60;99.90;;;;;;4998328;28;20183;-90
2023/03/28 21:59:20;;;;;;;4.53;2.60;;;8.60;99.90;;;;;;4996340;28;20202;-91
2023/03/28 22:02:26;;;;;;;4.70;2.83;;;8.60;99.90;;;;;;4994376;28;20191;-91
2023/03/28 22:04:58;;;;;;;4.50;2.33;;;8.60;99.90;;;;;;4991455;28;20202;-90
2023/03/28 22:07:39;;;;;;;5.80;2.80;;;8.60;99.90;;;;;;4992557;28;20231;-91
2023/03/28 22:10:17;;;;;;;5.50;2.80;;;8.50;99.90;;;;;;4992280;28;20230;-91
2023/03/28 22:13:02;;;;;;;5.57;2.27;;;8.60;99.90;;;;;;4992107;28;20211;-90
2023/03/28 22:15:42;;;;;;;6.10;3.07;;;8.60;99.90;;;;;;4996140;28;20231;-89
2023/03/28 22:18:57;;;;;;;4.33;2.20;;;8.60;99.90;;;;;;4995855;28;20198;-89
2023/03/28 22:21:59;;;;;;;4.50;2.33;;;8.70;99.90;;;;;;4993397;28;20172;-91
2023/03/28 22:25:18;;;;;;;;;;;;;;;;;;;;;
2023/03/28 22:28:08;;;;;;;;;;;;;;;;;;;;;
2023/03/28 22:34:25;;;;;;;5.07;2.30;;;8.70;99.90;;;;;;4940599;28;20193;-92
2023/03/28 22:37:28;;;;;;;4.53;1.97;;;8.80;99.90;;;;;;5011720;28;20807;-90
2023/03/28 22:40:21;;;;;;;5.30;1.97;;;8.80;99.90;;;;;;4986341;28;20186;-89
2023/03/28 22:43:17;;;;;;;4.90;2.07;;;9.00;99.90;;;;;;4987892;28;20198;-90
2023/03/28 22:46:43;;;;;;;5.10;2.50;;;9.00;99.90;;;;;;4999292;28;20207;-90
2023/03/28 22:50:06;;;;;;;;;;;;;;;;;;;;;
2023/03/28 22:53:22;;;;;;;;;;;;;;;;;;;;;
2023/03/28 23:00:00;;;;;;;4.97;1.80;;;9.10;99.90;;;;;;4979332;28;20191;-89
2023/03/28 23:31:58;;;;;;;7.07;2.40;;;9.30;99.90;;;;;;5447061;23;20237;-90
2023/03/28 23:34:59;;;;;;;3.20;2.10;;;9.30;99.90;;;;;;5009282;28;20205;-91
2023/03/28 23:38:29;;;;;;;3.83;2.00;;;9.30;99.90;;;;;;5008715;28;20641;-91
2023/03/28 23:41:44;;;;;;;4.00;2.07;;;9.30;99.90;;;;;;5004592;28;20237;-91
2023/03/28 23:44:11;;;;;;;3.17;2.00;;;9.30;99.90;;;;;;4996709;28;20181;-91
2023/03/28 23:47:32;;;;;;;4.73;2.23;;;9.30;99.90;;;;;;5004856;28;20255;-91
2023/03/28 23:50:29;;;;;;;4.83;2.50;;;9.30;99.90;;;;;;4948548;29;20274;-91
2023/03/28 23:53:27;;;;;;;3.80;2.20;;;9.40;99.90;;;;;;4953624;29;20239;-91
2023/03/28 23:56:43;;;;;;;3.90;2.50;;;9.40;99.90;;;;;;4900294;29;20182;-91
